aviador You're here:

KOSU Decoded Metar

COLUMBUS/ST UNIV in OH, USA
Report Time2018-07-18 22:53:00
UTC Time2018-07-18 23:43:18
Flight Rules vfr VFR
Wind090° at 06 kt
W.Decomp.*RWY 09: 6.0 kt HW 0.5 kt RCW
RWY 14: 4.2 kt HW 4.2 kt LCW
RWY 05: 4.2 kt HW 4.2 kt RCW
W.Rank090° ranks 31
Current wind is above 090° avg. (5.5)
Visibility9999 m
Phenomena:N/A
Clouds:Broken 065 Hf
Expected CloudBase > 4,800 ft AGL from Temp-Dew spread
Ceiling6,500 ft
Temp26°C (ISA +13)
Dew Point14°C (48% RH)
AAT25.1°C
QNH1017 hPa
Density Alt2,480 ft
Elevation919 ft
Report Wrong Elevation
Raw Report
KOSU 182253Z 09006KT 10SM BKN065 26/14 A3003 RMK AO2 SLP164
T02610139=

Extra information for KOSU:More info

Metar Taf Metar & Taf Last 4 Metars F.Rules Stats Wind Profile Meteogram Temp Stats Airport Information Weather charts Add Link Nearby VenuesMetar ALERT Operation Metar Decoded Social comments

AIRNAV info for KOSU